الصفحة الرئيسية
METAR-TAF:

METAR-TAF

مطار :

مطار كريستيانو رونالدو

فونشال, جزر ماديرا, البرتغال

دائرة عرض: 32-41-52N, خط طول: 016-46-28W, ارتفاع: 59 متر

مراقبة الطقس الحالي

تاريخ ووقت الإصدار 14 دقيقة قبل الساعة 04:30UTC
ريح 8 عقدة من الشمال, الاتجاه يتراوح بين الغرب/الشمال الغربي و الشمال/الشمال الشرقي
درجة الحرارة 23°درجة مئوية
الرطوبة 65%
ضغط 1019 hPa
الرؤية 10 كم أو أكثر
غيوم قليلة على ارتفاع 1500 قدم

METAR: LPMA 090430Z 35008KT 300V030 9999 FEW015 23/16 Q1019

زمن: 05:44 (04:44 UTC)

توقعات

تاريخ ووقت الإصدار 5ساعات و 44 دقيقة قبل الساعة 23:00UTC
التوقعات صالحة من09 الساعة 00 UTC إلى 09 الساعة 24 UTC
ريح 10 عقدة من الشمال/الشمال الشرقي
الرؤية 10 كم أو أكثر
غيوم قليلة على ارتفاع 1500 قدم
غيوم متفرقة على ارتفاع 3000 قدم
مؤقت
من 09 الساعة 00 UTC إلى 09 الساعة 24 UTC
غيوم مفككة على ارتفاع 1300 قدم
أصبح
من 09 الساعة 15 UTC إلى 09 الساعة 17 UTC
ريح 12 عقدة من الشمال

TAF: LPMA 082300Z 0900/0924 03010KT 9999 FEW015 SCT030 TEMPO 0900/0924 BKN013 BECMG 0915/0917 35012KT

أرصاد الطقس والتوقعات من أكثر من 4000 مطار (تقارير الطقس للمطار METAR والتنبؤ بالطقس بالمطارTAF).

المحطات المتاحة هي النقط الصفراء والحمراء على الخريطة.

حرك المؤشر فوق النقطة لمعرفة اسم المحطة.

ثم انقر لمعرفة أرصاد وتوقعات الطقس.

لتغيير الخارطة: اضغط على الأزرار الخضراء مع رمز الصليب الأسود للتكبير. على الزر الأخضر مع شرطة للتصغير، أو على الأسهم الخضراء للخرائط المجاورة.


METAR-TAF: